createdAt,value
2022-07-26T00:00:11.567Z,95220.50
2022-07-26T00:02:38.533Z,95227.09
2022-07-26T00:05:06.028Z,95225.50
2022-07-26T00:07:36.326Z,95219.53
2022-07-26T00:10:06.068Z,95219.34
2022-07-26T00:12:33.527Z,95227.91
2022-07-26T00:15:00.155Z,95225.00
2022-07-26T00:17:26.823Z,95230.38
2022-07-26T00:19:53.499Z,95226.44
2022-07-26T00:22:20.358Z,95226.44
2022-07-26T00:24:46.991Z,95230.44
2022-07-26T00:27:13.619Z,95236.09
2022-07-26T00:29:40.274Z,95236.41
2022-07-26T00:32:06.993Z,95247.72
2022-07-26T00:34:33.661Z,95239.66
2022-07-26T00:37:00.336Z,95239.66
2022-07-26T00:39:27.018Z,95235.38
2022-07-26T00:41:55.247Z,95232.25
2022-07-26T00:44:22.057Z,95235.16
2022-07-26T00:46:48.902Z,95238.22
2022-07-26T00:49:15.693Z,95233.94
2022-07-26T00:51:42.545Z,95236.06
2022-07-26T00:54:13.536Z,95228.22
2022-07-26T00:56:40.245Z,95231.91
2022-07-26T00:59:07.167Z,95230.00
2022-07-26T01:01:34.184Z,95240.41
2022-07-26T01:04:01.139Z,95241.88
2022-07-26T01:06:27.955Z,95240.47
2022-07-26T01:08:55.095Z,95228.56
2022-07-26T01:11:21.849Z,95235.69
2022-07-26T01:13:50.221Z,95232.03
2022-07-26T01:16:17.707Z,95238.31
2022-07-26T01:18:46.733Z,95231.56
2022-07-26T01:21:14.305Z,95239.88
2022-07-26T01:23:42.945Z,95232.13
2022-07-26T01:26:10.003Z,95235.97
2022-07-26T01:28:39.245Z,95236.00
2022-07-26T01:31:07.455Z,95230.53
2022-07-26T01:33:35.055Z,95237.72
2022-07-26T01:36:01.948Z,95230.94
2022-07-26T01:38:29.089Z,95234.16
2022-07-26T01:40:56.001Z,95237.53
2022-07-26T01:43:22.740Z,95231.50
2022-07-26T01:45:50.590Z,95232.75
2022-07-26T01:48:17.389Z,95227.19
2022-07-26T01:50:44.116Z,95233.53
2022-07-26T01:53:10.947Z,95240.91
2022-07-26T01:55:37.603Z,95237.78
2022-07-26T01:58:06.152Z,95238.38
2022-07-26T02:00:33.854Z,95234.53
2022-07-26T02:03:00.997Z,95235.16
2022-07-26T02:05:28.010Z,95244.75
2022-07-26T02:07:54.675Z,95243.59
2022-07-26T02:10:22.752Z,95239.25
2022-07-26T02:12:49.698Z,95243.09
2022-07-26T02:15:16.847Z,95244.72
2022-07-26T02:17:43.653Z,95248.47
2022-07-26T02:20:10.561Z,95238.66
2022-07-26T02:22:37.305Z,95239.53
2022-07-26T02:25:05.408Z,95246.28
2022-07-26T02:27:32.836Z,95247.22
2022-07-26T02:29:59.719Z,95244.69
2022-07-26T02:32:26.412Z,95247.06
2022-07-26T02:34:53.129Z,95243.88
2022-07-26T02:37:19.977Z,95249.97
2022-07-26T02:39:46.693Z,95254.47
2022-07-26T02:42:13.397Z,95247.25
2022-07-26T02:44:40.153Z,95246.78
2022-07-26T02:47:06.854Z,95254.09
2022-07-26T02:49:33.542Z,95246.34
2022-07-26T02:52:00.319Z,95232.47
2022-07-26T02:54:27.990Z,95242.09
2022-07-26T02:56:54.696Z,95239.38
2022-07-26T02:59:21.392Z,95231.53
2022-07-26T03:01:48.179Z,95234.00
2022-07-26T03:04:14.993Z,95236.94
2022-07-26T03:06:41.750Z,95240.19
2022-07-26T03:09:08.454Z,95240.00
2022-07-26T03:11:35.225Z,95241.09
2022-07-26T03:14:02.114Z,95244.13
2022-07-26T03:16:29.864Z,95235.88
2022-07-26T03:18:57.753Z,95229.97
2022-07-26T03:21:24.697Z,95230.78
2022-07-26T03:23:51.582Z,95236.38
2022-07-26T03:26:18.395Z,95239.03
2022-07-26T03:29:21.919Z,95232.94
2022-07-26T03:31:48.679Z,95238.81
2022-07-26T03:34:15.375Z,95237.50
2022-07-26T03:36:42.272Z,95241.25
2022-07-26T03:39:09.011Z,95233.16
2022-07-26T03:41:36.151Z,95230.47
2022-07-26T03:44:03.151Z,95238.50
2022-07-26T03:46:30.035Z,95233.47
2022-07-26T03:48:57.012Z,95241.47
2022-07-26T03:51:24.189Z,95238.28
2022-07-26T03:53:51.171Z,95232.06
2022-07-26T03:56:18.146Z,95236.00
2022-07-26T03:58:45.064Z,95229.06
2022-07-26T04:01:11.818Z,95240.03
2022-07-26T04:03:38.549Z,95232.06
2022-07-26T04:06:06.152Z,95233.59
2022-07-26T04:08:33.982Z,95222.25
2022-07-26T04:11:00.685Z,95217.22
2022-07-26T04:13:47.445Z,95229.28
2022-07-26T04:16:14.158Z,95230.28
2022-07-26T04:18:40.877Z,95223.06
2022-07-26T04:21:07.714Z,95228.19
2022-07-26T04:23:34.555Z,95236.81
2022-07-26T04:26:01.315Z,95234.63
2022-07-26T04:28:28.031Z,95233.25
2022-07-26T04:30:56.065Z,95244.78
2022-07-26T04:33:23.309Z,95237.50
2022-07-26T04:35:50.430Z,95227.09
2022-07-26T04:38:17.174Z,95223.31
2022-07-26T04:40:44.337Z,95224.41
2022-07-26T04:43:15.535Z,95232.91
2022-07-26T04:45:44.463Z,95230.28
2022-07-26T04:48:12.768Z,95216.88
2022-07-26T04:50:39.868Z,95222.19
2022-07-26T04:53:06.638Z,95229.44
2022-07-26T04:55:33.370Z,95230.78
2022-07-26T04:58:00.091Z,95235.56
2022-07-26T05:00:26.879Z,95225.13
2022-07-26T05:03:00.270Z,95234.16
2022-07-26T05:05:30.212Z,95226.72
2022-07-26T05:07:59.720Z,95235.78
2022-07-26T05:10:35.670Z,95231.97
2022-07-26T05:13:05.539Z,95235.50
2022-07-26T05:15:35.516Z,95236.69
2022-07-26T05:18:06.992Z,95240.75
2022-07-26T05:20:34.984Z,95239.19
2022-07-26T05:23:01.727Z,95233.91
2022-07-26T05:25:28.704Z,95228.16
2022-07-26T05:27:55.778Z,95227.84
2022-07-26T05:30:22.629Z,95227.06
2022-07-26T05:32:49.459Z,95227.78
2022-07-26T05:35:16.267Z,95224.63
2022-07-26T05:37:43.183Z,95232.03
2022-07-26T05:40:11.970Z,95231.38
2022-07-26T05:42:38.754Z,95237.53
2022-07-26T05:45:06.932Z,95236.72
2022-07-26T05:47:33.747Z,95227.78
2022-07-26T05:50:00.681Z,95226.38
2022-07-26T05:52:27.666Z,95237.41
2022-07-26T05:54:54.417Z,95228.25
2022-07-26T05:57:21.187Z,95233.28
2022-07-26T05:59:47.931Z,95224.63
2022-07-26T06:02:14.693Z,95229.78
2022-07-26T06:04:41.506Z,95221.16
2022-07-26T06:07:08.301Z,95227.41
2022-07-26T06:09:35.072Z,95225.34
2022-07-26T06:12:01.779Z,95230.31
2022-07-26T06:14:28.580Z,95230.63
2022-07-26T06:16:55.522Z,95234.47
2022-07-26T06:21:49.051Z,95237.06
2022-07-26T06:24:16.290Z,95239.66
2022-07-26T06:26:43.167Z,95236.13
2022-07-26T06:29:10.016Z,95237.94
2022-07-26T06:31:36.930Z,95239.09
2022-07-26T06:34:03.855Z,95238.88
2022-07-26T06:36:31.344Z,95240.84
2022-07-26T06:38:58.882Z,95240.28
2022-07-26T06:41:25.818Z,95241.44
2022-07-26T06:43:52.708Z,95236.72
2022-07-26T06:46:19.562Z,95243.13
2022-07-26T06:48:47.454Z,95240.69
2022-07-26T06:51:14.612Z,95241.31
2022-07-26T06:53:41.431Z,95244.34
2022-07-26T06:56:08.384Z,95234.56
2022-07-26T06:58:35.155Z,95237.75
2022-07-26T07:01:02.073Z,95239.03
2022-07-26T07:03:28.929Z,95235.84
2022-07-26T07:05:55.737Z,95241.06
2022-07-26T07:08:23.268Z,95239.59
2022-07-26T07:10:51.377Z,95238.41
2022-07-26T07:13:18.393Z,95250.59
2022-07-26T07:15:45.453Z,95242.75
2022-07-26T07:18:12.180Z,95243.28
2022-07-26T07:20:39.724Z,95246.19
2022-07-26T07:23:07.188Z,95243.44
2022-07-26T07:25:35.005Z,95246.47
2022-07-26T07:28:01.847Z,95241.50
2022-07-26T07:30:28.607Z,95239.88
2022-07-26T07:32:56.855Z,95232.41
2022-07-26T07:35:23.699Z,95232.47
2022-07-26T07:37:53.653Z,95233.78
2022-07-26T07:40:21.841Z,95231.41
2022-07-26T07:42:49.570Z,95231.00
2022-07-26T07:45:16.323Z,95239.91
2022-07-26T07:47:43.066Z,95240.72
2022-07-26T07:50:10.005Z,95233.53
2022-07-26T07:52:36.691Z,95224.88
2022-07-26T07:55:37.024Z,95225.28
2022-07-26T07:57:50.417Z,95216.56
2022-07-26T08:00:18.898Z,95216.13
2022-07-26T08:02:46.633Z,95218.28
2022-07-26T08:05:15.448Z,95218.00
2022-07-26T08:07:42.745Z,95216.13
2022-07-26T08:10:10.478Z,95220.84
2022-07-26T08:12:37.298Z,95219.44
2022-07-26T08:15:07.494Z,95215.50
2022-07-26T08:17:38.048Z,95209.06
2022-07-26T08:20:10.888Z,95219.44
2022-07-26T08:22:42.783Z,95215.72
2022-07-26T08:25:09.980Z,95206.34
2022-07-26T08:27:40.958Z,95209.09
2022-07-26T08:30:08.481Z,95207.09
2022-07-26T08:32:35.941Z,95205.31
2022-07-26T08:35:18.073Z,95213.41
2022-07-26T08:37:47.310Z,95218.06
2022-07-26T08:40:14.101Z,95211.06
2022-07-26T08:42:40.839Z,95211.34
2022-07-26T08:45:08.050Z,95219.31
2022-07-26T08:47:36.268Z,95214.88
2022-07-26T08:50:09.776Z,95222.47
2022-07-26T08:52:40.329Z,95215.78
2022-07-26T08:55:07.709Z,95225.72
2022-07-26T08:57:34.608Z,95218.91
2022-07-26T09:00:22.869Z,95214.50
2022-07-26T09:02:49.596Z,95220.31
2022-07-26T09:05:26.810Z,95215.97
2022-07-26T09:07:53.506Z,95222.50
2022-07-26T09:10:20.361Z,95215.22
2022-07-26T09:12:56.906Z,95217.44
2022-07-26T09:15:27.510Z,95208.94
2022-07-26T09:17:56.867Z,95200.50
2022-07-26T09:20:28.088Z,95202.53
2022-07-26T09:23:10.134Z,95204.19
2022-07-26T09:25:39.824Z,95200.31
2022-07-26T09:28:29.087Z,95201.13
2022-07-26T09:30:58.634Z,95201.59
2022-07-26T09:33:26.706Z,95204.00
2022-07-26T09:36:02.546Z,95211.81
2022-07-26T09:38:43.617Z,95217.16
2022-07-26T09:41:37.220Z,95214.16
2022-07-26T09:44:18.986Z,95215.44
2022-07-26T09:46:58.319Z,95205.25
2022-07-26T09:49:40.054Z,95218.94
2022-07-26T09:52:27.501Z,95208.84
2022-07-26T09:54:54.197Z,95214.53
2022-07-26T09:57:21.171Z,95211.56
2022-07-26T09:59:47.900Z,95218.56
2022-07-26T10:02:14.707Z,95208.59
2022-07-26T10:04:42.452Z,95223.09
2022-07-26T10:07:11.644Z,95212.25
2022-07-26T10:10:03.605Z,95205.41
2022-07-26T10:12:33.847Z,95194.84
2022-07-26T10:15:00.806Z,95199.84
2022-07-26T10:17:31.725Z,95203.22
2022-07-26T10:20:01.479Z,95191.44
2022-07-26T10:22:40.844Z,95194.88
2022-07-26T10:25:19.852Z,95197.50
2022-07-26T10:27:50.010Z,95190.41
2022-07-26T10:30:19.502Z,95189.94
2022-07-26T10:32:52.126Z,95196.91
2022-07-26T10:35:37.276Z,95200.38
2022-07-26T10:38:32.611Z,95200.38
2022-07-26T10:41:06.662Z,95197.34
2022-07-26T10:43:42.308Z,95191.06
2022-07-26T10:46:18.969Z,95187.00
2022-07-26T10:48:55.062Z,95187.06
2022-07-26T10:51:27.065Z,95187.56
2022-07-26T10:54:11.457Z,95183.16
2022-07-26T10:56:40.115Z,95187.06
2022-07-26T10:59:07.370Z,95177.44
2022-07-26T11:01:40.304Z,95176.72
2022-07-26T11:04:20.959Z,95181.91
2022-07-26T11:06:48.605Z,95181.00
2022-07-26T11:09:15.818Z,95172.56
2022-07-26T11:11:46.748Z,95172.44
2022-07-26T11:14:17.331Z,95173.22
2022-07-26T11:16:49.631Z,95164.63
2022-07-26T11:19:22.974Z,95154.38
2022-07-26T11:21:58.198Z,95166.94
2022-07-26T11:24:25.442Z,95161.88
2022-07-26T11:26:53.628Z,95155.78
2022-07-26T11:29:38.837Z,95162.84
2022-07-26T11:32:19.787Z,95158.09
2022-07-26T11:34:47.582Z,95158.22
2022-07-26T11:37:14.832Z,95149.56
2022-07-26T11:39:41.733Z,95151.97
2022-07-26T11:42:11.411Z,95135.44
2022-07-26T11:44:38.529Z,95144.78
2022-07-26T11:47:21.284Z,95135.13
2022-07-26T11:52:40.779Z,95131.84
2022-07-26T11:55:08.499Z,95132.44
2022-07-26T11:57:35.389Z,95124.00
2022-07-26T12:00:03.677Z,95126.47
2022-07-26T12:02:31.010Z,95122.88
2022-07-26T12:05:19.929Z,95122.91
2022-07-26T12:08:03.603Z,95128.13
2022-07-26T12:10:31.477Z,95124.59
2022-07-26T12:13:16.421Z,95109.59
2022-07-26T12:15:53.505Z,95110.00
2022-07-26T12:18:26.337Z,95107.50
2022-07-26T12:21:11.416Z,95114.44
2022-07-26T12:23:47.113Z,95113.31
2022-07-26T12:26:19.562Z,95104.41
2022-07-26T12:28:47.133Z,95114.34
2022-07-26T12:31:24.564Z,95109.56
2022-07-26T12:33:51.369Z,95111.47
2022-07-26T12:36:27.788Z,95101.94
2022-07-26T12:38:57.707Z,95102.44
2022-07-26T12:41:35.224Z,95100.38
2022-07-26T12:44:02.013Z,95099.78
2022-07-26T12:46:32.859Z,95093.59
2022-07-26T12:49:00.911Z,95087.53
2022-07-26T12:51:28.058Z,95091.34
2022-07-26T12:53:54.896Z,95091.44
2022-07-26T12:56:21.614Z,95083.81
2022-07-26T12:58:48.409Z,95087.94
2022-07-26T13:01:15.257Z,95085.72
2022-07-26T13:03:41.981Z,95081.63
2022-07-26T13:06:08.611Z,95076.50
2022-07-26T13:08:35.314Z,95079.78
2022-07-26T13:11:02.039Z,95063.31
2022-07-26T13:13:28.711Z,95066.09
2022-07-26T13:15:55.362Z,95064.06
2022-07-26T13:18:22.061Z,95060.59
2022-07-26T13:20:48.821Z,95057.31
2022-07-26T13:23:20.097Z,95058.34
2022-07-26T13:25:48.789Z,95058.41
2022-07-26T13:28:17.283Z,95050.69
2022-07-26T13:30:44.551Z,95054.09
2022-07-26T13:33:11.228Z,95047.88
2022-07-26T13:35:37.880Z,95052.94
2022-07-26T13:38:04.807Z,95056.28
2022-07-26T13:40:32.154Z,95051.53
2022-07-26T13:42:59.702Z,95048.75
2022-07-26T13:45:29.311Z,95054.38
2022-07-26T13:47:59.775Z,95055.63
2022-07-26T13:50:29.809Z,95056.44
2022-07-26T13:52:59.220Z,95050.63
2022-07-26T13:55:26.805Z,95049.34
2022-07-26T13:57:56.871Z,95051.50
2022-07-26T14:00:29.478Z,95046.59
2022-07-26T14:03:00.081Z,95049.59
2022-07-26T14:05:28.496Z,95052.38
2022-07-26T14:07:55.885Z,95049.66
2022-07-26T14:10:24.004Z,95041.44
2022-07-26T14:12:51.480Z,95042.94
2022-07-26T14:15:22.085Z,95045.31
2022-07-26T14:17:49.293Z,95046.88
2022-07-26T14:20:15.952Z,95052.56
2022-07-26T14:22:42.756Z,95055.31
2022-07-26T14:25:09.961Z,95050.63
2022-07-26T14:27:36.765Z,95053.53
2022-07-26T14:30:05.366Z,95051.97
2022-07-26T14:32:32.055Z,95044.13
2022-07-26T14:34:58.747Z,95052.25
2022-07-26T14:37:43.685Z,95044.34
2022-07-26T14:40:15.155Z,95045.47
2022-07-26T14:42:42.082Z,95047.41
2022-07-26T14:45:09.582Z,95044.22
2022-07-26T14:47:36.903Z,95043.38
2022-07-26T14:50:07.228Z,95038.28
2022-07-26T14:52:37.037Z,95032.50
2022-07-26T14:55:04.296Z,95035.63
2022-07-26T14:57:30.958Z,95036.03
2022-07-26T14:59:57.649Z,95030.88
2022-07-26T15:02:24.397Z,95026.75
2022-07-26T15:04:51.268Z,95029.81
2022-07-26T15:07:17.939Z,95027.69
2022-07-26T15:09:44.610Z,95033.41
2022-07-26T15:12:11.380Z,95027.38
2022-07-26T15:14:38.073Z,95020.06
2022-07-26T15:17:04.830Z,95014.16
2022-07-26T15:19:31.561Z,95017.22
2022-07-26T15:21:58.350Z,95006.81
2022-07-26T15:24:25.031Z,95009.47
2022-07-26T15:26:51.674Z,95007.81
2022-07-26T15:29:18.320Z,95012.56
2022-07-26T15:31:47.253Z,95004.91
2022-07-26T15:34:14.466Z,95014.34
2022-07-26T15:36:41.975Z,95008.59
2022-07-26T15:39:17.914Z,95019.84
2022-07-26T15:41:46.867Z,95000.81
2022-07-26T15:44:16.480Z,94998.34
2022-07-26T15:46:43.585Z,95001.66
2022-07-26T15:49:12.165Z,95005.78
2022-07-26T15:51:39.729Z,95000.22
2022-07-26T15:54:11.329Z,94997.56
2022-07-26T15:56:38.761Z,95000.88
2022-07-26T15:59:05.543Z,94991.06
2022-07-26T16:01:32.383Z,94981.41
2022-07-26T16:03:59.299Z,94992.16
2022-07-26T16:06:25.947Z,94994.44
2022-07-26T16:09:15.117Z,94996.47
2022-07-26T16:11:39.345Z,94996.75
2022-07-26T16:14:06.047Z,95001.22
2022-07-26T16:16:32.866Z,95002.03
2022-07-26T16:18:59.715Z,94997.84
2022-07-26T16:21:26.499Z,94995.09
2022-07-26T16:23:53.149Z,94998.84
2022-07-26T16:26:19.793Z,94988.31
2022-07-26T16:28:46.561Z,94981.19
2022-07-26T16:31:13.390Z,94990.56
2022-07-26T16:33:45.928Z,95000.50
2022-07-26T16:36:14.411Z,94987.19
2022-07-26T16:38:41.150Z,94991.41
2022-07-26T16:41:07.991Z,94990.66
2022-07-26T16:43:34.926Z,94989.84
2022-07-26T16:46:01.704Z,94987.53
2022-07-26T16:48:28.866Z,94980.16
2022-07-26T16:50:55.699Z,94977.94
2022-07-26T16:53:22.450Z,94987.31
2022-07-26T16:55:49.089Z,94988.59
2022-07-26T16:58:15.783Z,94994.91
2022-07-26T17:00:42.533Z,94993.16
2022-07-26T17:03:09.409Z,94998.31
2022-07-26T17:05:36.641Z,94995.31
2022-07-26T17:08:03.518Z,94995.69
2022-07-26T17:10:30.312Z,94997.41
2022-07-26T17:12:57.154Z,94992.47
2022-07-26T17:15:24.074Z,94993.75
2022-07-26T17:17:50.823Z,94988.81
2022-07-26T17:20:17.850Z,94999.34
2022-07-26T17:22:44.609Z,94990.25
2022-07-26T17:25:11.573Z,94994.88
2022-07-26T17:27:38.412Z,94987.97
2022-07-26T17:30:08.574Z,94992.47
2022-07-26T17:32:36.091Z,94998.53
2022-07-26T17:35:02.825Z,94994.72
2022-07-26T17:37:29.570Z,94996.59
2022-07-26T17:39:59.052Z,94992.81
2022-07-26T17:42:25.767Z,94988.50
2022-07-26T17:44:52.508Z,94992.97
2022-07-26T17:47:27.929Z,94993.09
2022-07-26T17:50:34.086Z,94995.53
2022-07-26T17:52:51.059Z,95000.28
2022-07-26T17:55:19.736Z,94990.56
2022-07-26T17:57:48.267Z,95000.22
2022-07-26T18:00:16.274Z,94997.34
2022-07-26T18:02:43.115Z,94996.66
2022-07-26T18:05:10.050Z,95001.97
2022-07-26T18:07:37.145Z,95009.38
2022-07-26T18:10:04.631Z,94998.00
2022-07-26T18:12:31.431Z,95002.28
2022-07-26T18:14:58.283Z,95004.69
2022-07-26T18:17:25.043Z,94998.94
2022-07-26T18:19:51.801Z,95001.72
2022-07-26T18:22:18.528Z,95002.22
2022-07-26T18:24:45.254Z,95003.25
2022-07-26T18:27:12.081Z,95001.56
2022-07-26T18:29:38.869Z,95004.81
2022-07-26T18:32:05.933Z,94997.19
2022-07-26T18:34:32.633Z,94990.31
2022-07-26T18:36:59.428Z,94987.31
2022-07-26T18:39:32.744Z,94995.88
2022-07-26T18:42:00.770Z,94996.94
2022-07-26T18:44:27.604Z,95006.59
2022-07-26T18:46:54.369Z,95004.94
2022-07-26T18:49:21.422Z,94998.91
2022-07-26T18:51:49.083Z,95004.94
2022-07-26T18:54:17.382Z,95012.81
2022-07-26T18:56:44.133Z,95011.06
2022-07-26T18:59:11.110Z,95008.53
2022-07-26T19:01:38.242Z,95007.72
2022-07-26T19:04:07.310Z,95013.50
2022-07-26T19:06:36.581Z,95014.44
2022-07-26T19:09:04.590Z,95013.56
2022-07-26T19:11:31.381Z,95006.34
2022-07-26T19:13:58.150Z,95013.78
2022-07-26T19:16:26.724Z,95016.97
2022-07-26T19:18:57.316Z,95015.81
2022-07-26T19:21:24.477Z,95020.38
2022-07-26T19:23:51.452Z,95021.56
2022-07-26T19:26:18.277Z,95033.63
2022-07-26T19:28:45.282Z,95022.25
2022-07-26T19:31:12.110Z,95030.66
2022-07-26T19:33:38.877Z,95025.31
2022-07-26T19:36:05.715Z,95031.66
2022-07-26T19:38:32.379Z,95032.38
2022-07-26T19:40:59.567Z,95029.56
2022-07-26T19:43:26.743Z,95036.59
2022-07-26T19:45:53.550Z,95026.34
2022-07-26T19:48:20.307Z,95034.53
2022-07-26T19:50:47.337Z,95040.13
2022-07-26T19:53:14.110Z,95042.63
2022-07-26T19:55:40.857Z,95034.44
2022-07-26T19:58:07.598Z,95048.47
2022-07-26T20:00:34.451Z,95047.56
2022-07-26T20:03:01.729Z,95044.09
2022-07-26T20:05:28.485Z,95053.66
2022-07-26T20:07:55.257Z,95050.38
2022-07-26T20:13:06.270Z,95046.97
2022-07-26T20:15:33.029Z,95051.50
2022-07-26T20:17:59.868Z,95048.88
2022-07-26T20:20:26.560Z,95049.88
2022-07-26T20:22:53.377Z,95053.31
2022-07-26T20:25:21.792Z,95052.22
2022-07-26T20:27:49.480Z,95062.06
2022-07-26T20:30:16.111Z,95054.84
2022-07-26T20:32:43.247Z,95070.44
2022-07-26T20:35:10.176Z,95069.00
2022-07-26T20:37:37.043Z,95061.00
2022-07-26T20:40:04.597Z,95074.25
2022-07-26T20:42:33.743Z,95067.44
2022-07-26T20:45:00.398Z,95069.31
2022-07-26T20:47:27.039Z,95055.66
2022-07-26T20:49:53.886Z,95062.84
2022-07-26T20:52:25.838Z,95058.34
2022-07-26T20:54:52.491Z,95058.81
2022-07-26T20:57:19.125Z,95072.03
2022-07-26T20:59:45.893Z,95071.88
2022-07-26T21:02:12.585Z,95058.56
2022-07-26T21:04:39.227Z,95059.41
2022-07-26T21:07:05.850Z,95063.44
2022-07-26T21:09:33.048Z,95059.19
2022-07-26T21:11:59.611Z,95057.06
2022-07-26T21:14:26.375Z,95054.03
2022-07-26T21:16:53.029Z,95052.22
2022-07-26T21:19:19.730Z,95056.72
2022-07-26T21:21:46.330Z,95062.00
2022-07-26T21:24:13.168Z,95052.91
2022-07-26T21:26:39.762Z,95073.28
2022-07-26T21:29:06.386Z,95066.69
2022-07-26T21:31:32.965Z,95055.34
2022-07-26T21:33:59.865Z,95050.50
2022-07-26T21:36:26.512Z,95047.22
2022-07-26T21:38:53.087Z,95051.63
2022-07-26T21:41:20.201Z,95044.41
2022-07-26T21:43:47.465Z,95043.41
2022-07-26T21:46:14.849Z,95044.34
2022-07-26T21:48:41.502Z,95045.44
2022-07-26T21:51:08.251Z,95050.50
2022-07-26T21:53:34.855Z,95041.66
2022-07-26T21:56:01.432Z,95041.03
2022-07-26T21:58:28.429Z,95044.16
2022-07-26T22:00:55.322Z,95054.63
2022-07-26T22:03:21.930Z,95053.47
2022-07-26T22:05:48.756Z,95053.47
2022-07-26T22:08:15.471Z,95062.03
2022-07-26T22:10:45.030Z,95069.31
2022-07-26T22:13:13.823Z,95059.81
2022-07-26T22:15:41.028Z,95062.50
2022-07-26T22:18:09.797Z,95065.38
2022-07-26T22:20:37.218Z,95066.56
2022-07-26T22:23:08.974Z,95063.38
2022-07-26T22:25:37.558Z,95057.41
2022-07-26T22:28:06.291Z,95064.19
2022-07-26T22:30:33.375Z,95069.66
2022-07-26T22:33:02.799Z,95067.44
2022-07-26T22:35:33.475Z,95068.31
2022-07-26T22:38:07.236Z,95069.81
2022-07-26T22:40:34.533Z,95047.41
2022-07-26T22:43:01.639Z,95060.25
2022-07-26T22:45:30.126Z,95053.38
2022-07-26T22:47:57.311Z,95042.44
2022-07-26T22:50:25.234Z,95056.72
2022-07-26T22:52:52.257Z,95048.13
2022-07-26T22:55:19.700Z,95053.97
2022-07-26T22:57:46.856Z,95055.13
2022-07-26T23:00:16.244Z,95045.19
2022-07-26T23:02:43.338Z,95053.63
2022-07-26T23:05:11.596Z,95054.91
2022-07-26T23:07:39.149Z,95054.66
2022-07-26T23:10:09.346Z,95058.41
2022-07-26T23:12:37.106Z,95075.44
2022-07-26T23:15:05.662Z,95069.13
2022-07-26T23:17:32.263Z,95066.03
2022-07-26T23:19:58.857Z,95069.03
2022-07-26T23:22:25.463Z,95067.50
2022-07-26T23:24:52.107Z,95071.16
2022-07-26T23:27:20.272Z,95075.81
2022-07-26T23:29:47.221Z,95068.06
2022-07-26T23:32:14.987Z,95070.50
2022-07-26T23:34:41.592Z,95075.34
2022-07-26T23:37:08.252Z,95062.72
2022-07-26T23:39:34.869Z,95084.66
2022-07-26T23:42:01.682Z,95067.97
2022-07-26T23:44:29.940Z,95063.66
2022-07-26T23:46:57.911Z,95060.66
2022-07-26T23:49:25.026Z,95060.66
2022-07-26T23:51:52.496Z,95062.00
2022-07-26T23:54:20.048Z,95072.91
2022-07-26T23:56:46.821Z,95058.88
2022-07-26T23:59:13.853Z,95066.38
